Time;durP1;ratioP1;P1;durP2;ratioP2;P2;SDS_P1;SDS_P2;PMS_P1;PMS_P2;Temp;Humidity;BMP_temperature;BMP_pressure;BME280_temperature;BME280_humidity;BME280_pressure;Samples;Min_cycle;Max_cycle;Signal;HPM_P1;HPM_P2
2023/01/27 00:00:22;;;;;;;;;;;5.60;99.90;;;;;;6186767;23;19900;-74
2023/01/27 00:02:48;;;;;;;;;;;5.50;99.90;;;;;;6187557;23;19907;-75
2023/01/27 00:05:15;;;;;;;;;;;5.50;99.90;;;;;;6188199;23;19900;-75
2023/01/27 00:07:44;;;;;;;;;;;5.40;99.90;;;;;;6214902;23;19908;-75
2023/01/27 00:10:11;;;;;;;;;;;5.40;99.90;;;;;;6214445;23;20338;-75
2023/01/27 00:15:21;;;;;;;;;;;5.30;99.90;;;;;;6214869;23;19919;-75
2023/01/27 00:17:46;;;;;;;;;;;5.40;99.90;;;;;;6214714;23;19900;-75
2023/01/27 00:20:12;;;;;;;;;;;5.40;99.90;;;;;;6214751;23;19947;-75
2023/01/27 00:25:21;;;;;;;;;;;5.40;99.90;;;;;;6214506;23;20332;-75
2023/01/27 00:27:47;;;;;;;;;;;5.40;99.90;;;;;;6214716;23;19927;-75
2023/01/27 00:30:12;;;;;;;;;;;5.40;99.90;;;;;;6187681;23;19911;-75
2023/01/27 00:35:22;;;;;;;;;;;5.40;99.90;;;;;;6214606;23;19910;-75
2023/01/27 00:37:48;;;;;;;;;;;5.40;99.90;;;;;;6187639;23;20211;-75
2023/01/27 00:40:14;;;;;;;;;;;5.40;99.90;;;;;;6214392;23;19906;-75
2023/01/27 00:42:40;;;;;;;;;;;5.40;99.90;;;;;;6214133;23;19907;-75
2023/01/27 00:48:10;;;;;;;;;;;5.50;99.90;;;;;;6124520;23;19991;-74
2023/01/27 00:50:35;;;;;;;;;;;5.50;99.90;;;;;;6124233;23;19928;-74
2023/01/27 00:53:01;;;;;;;;;;;5.50;99.90;;;;;;6166307;23;20363;-74
2023/01/27 00:55:26;;;;;;;;;;;5.50;99.90;;;;;;6216148;23;19931;-74
2023/01/27 00:57:52;;;;;;;;;;;5.50;99.90;;;;;;6215977;23;19962;-74
2023/01/27 01:00:17;;;;;;;;;;;5.50;99.90;;;;;;6216239;23;19900;-74
2023/01/27 01:02:43;;;;;;;;;;;5.50;99.90;;;;;;6216001;23;19914;-74
2023/01/27 01:05:09;;;;;;;;;;;5.50;99.90;;;;;;6216213;23;19900;-74
2023/01/27 01:07:34;;;;;;;;;;;5.40;99.90;;;;;;6215977;23;19899;-74
2023/01/27 01:10:00;;;;;;;;;;;5.40;99.90;;;;;;6188867;23;19915;-74
2023/01/27 01:12:25;;;;;;;;;;;5.40;99.90;;;;;;6189346;23;19900;-74
2023/01/27 01:14:51;;;;;;;;;;;5.30;99.90;;;;;;6215909;23;19931;-74
2023/01/27 01:17:16;;;;;;;;;;;5.30;99.90;;;;;;6189498;23;19900;-74
2023/01/27 01:19:42;;;;;;;;;;;5.30;99.90;;;;;;6215810;23;19900;-74
2023/01/27 01:22:07;;;;;;;;;;;5.30;99.90;;;;;;6215929;23;19912;-75
2023/01/27 01:24:33;;;;;;;;;;;5.40;99.90;;;;;;6215807;23;20214;-74
2023/01/27 01:26:59;;;;;;;;;;;5.40;99.90;;;;;;6215796;23;20320;-74
2023/01/27 01:29:24;;;;;;;;;;;5.40;99.90;;;;;;6189147;23;19908;-74
2023/01/27 01:31:50;;;;;;;;;;;5.40;99.90;;;;;;6215853;23;19923;-74
2023/01/27 01:34:15;;;;;;;;;;;5.40;99.90;;;;;;6215950;23;20233;-75
2023/01/27 01:36:41;;;;;;;;;;;5.40;99.90;;;;;;6189016;23;19994;-74
2023/01/27 01:39:06;;;;;;;;;;;5.40;99.90;;;;;;6215620;23;20279;-74
2023/01/27 01:41:32;;;;;;;;;;;5.40;99.90;;;;;;6215897;23;19900;-75
2023/01/27 01:43:57;;;;;;;;;;;5.40;99.90;;;;;;6188714;23;20168;-74
2023/01/27 01:46:23;;;;;;;;;;;5.40;99.90;;;;;;6189369;23;19900;-74
2023/01/27 01:48:53;;;;;;;;;;;5.40;99.90;;;;;;6188966;23;19922;-74
2023/01/27 01:51:21;;;;;;;;;;;5.40;99.90;;;;;;6215642;23;19924;-77
2023/01/27 01:53:47;;;;;;;;;;;5.40;99.90;;;;;;6188992;23;20478;-77
2023/01/27 01:56:15;;;;;;;;;;;5.40;99.90;;;;;;6189137;23;19900;-77
2023/01/27 01:58:43;;;;;;;;;;;5.40;99.90;;;;;;6214786;23;19950;-77
2023/01/27 02:01:09;;;;;;;;;;;5.40;99.90;;;;;;6189072;23;19946;-77
2023/01/27 02:03:37;;;;;;;;;;;5.40;99.90;;;;;;6216019;23;19900;-77
2023/01/27 02:06:03;;;;;;;;;;;5.40;99.90;;;;;;6215583;23;19923;-77
2023/01/27 02:08:34;;;;;;;;;;;5.40;99.90;;;;;;6215121;23;20375;-77
2023/01/27 02:11:00;;;;;;;;;;;5.40;99.90;;;;;;6188817;23;19907;-77
2023/01/27 02:13:25;;;;;;;;;;;5.40;99.90;;;;;;6188844;23;19900;-77
2023/01/27 02:15:52;;;;;;;;;;;5.40;99.90;;;;;;6215459;23;19949;-77
2023/01/27 02:18:17;;;;;;;;;;;5.40;99.90;;;;;;6215171;23;19907;-77
2023/01/27 02:20:47;;;;;;;;;;;5.40;99.90;;;;;;6188631;23;19900;-77
2023/01/27 02:23:13;;;;;;;;;;;5.40;99.90;;;;;;6215607;23;19906;-77
2023/01/27 02:25:44;;;;;;;;;;;5.40;99.90;;;;;;6188831;23;19983;-77
2023/01/27 02:28:10;;;;;;;;;;;5.40;99.90;;;;;;6215289;23;19926;-77
2023/01/27 02:30:35;;;;;;;;;;;5.40;99.90;;;;;;6215069;23;19904;-77
2023/01/27 02:33:01;;;;;;;;;;;5.40;99.90;;;;;;6215314;23;19935;-77
2023/01/27 02:35:34;;;;;;;;;;;5.40;99.90;;;;;;6215240;23;19900;-77
2023/01/27 02:37:59;;;;;;;;;;;5.40;99.90;;;;;;6215340;23;20329;-77
2023/01/27 02:40:26;;;;;;;;;;;5.40;99.90;;;;;;6215273;23;19904;-77
2023/01/27 02:42:57;;;;;;;;;;;5.40;99.90;;;;;;6215193;23;19907;-77
2023/01/27 02:45:23;;;;;;;;;;;5.40;99.90;;;;;;6215090;23;19927;-77
2023/01/27 02:47:48;;;;;;;;;;;5.40;99.90;;;;;;6188446;23;19909;-74
2023/01/27 02:50:14;;;;;;;;;;;5.40;99.90;;;;;;6214974;23;19904;-74
2023/01/27 02:52:39;;;;;;;;;;;5.30;99.90;;;;;;6215113;23;19907;-74
2023/01/27 02:55:05;;;;;;;;;;;5.30;99.90;;;;;;6215068;23;19907;-77
2023/01/27 02:57:31;;;;;;;;;;;5.30;99.90;;;;;;6215075;23;20317;-77
2023/01/27 02:59:56;;;;;;;;;;;5.30;99.90;;;;;;6214852;23;20240;-77
2023/01/27 03:02:29;;;;;;;;;;;5.20;99.90;;;;;;6188226;23;19969;-77
2023/01/27 03:04:55;;;;;;;;;;;5.30;99.90;;;;;;6215012;23;19906;-77
2023/01/27 03:07:20;;;;;;;;;;;5.20;99.90;;;;;;6188382;23;19981;-77
2023/01/27 03:09:46;;;;;;;;;;;5.20;99.90;;;;;;6214627;23;19908;-77
2023/01/27 03:12:21;;;;;;;;;;;5.20;99.90;;;;;;6188331;23;20301;-77
2023/01/27 03:20:18;;;;;;;;;;;5.20;99.90;;;;;;6214771;23;19911;-77
2023/01/27 03:22:44;;;;;;;;;;;5.20;99.90;;;;;;6214747;23;19931;-77
2023/01/27 03:25:09;;;;;;;;;;;5.20;99.90;;;;;;6214870;23;19907;-77
2023/01/27 03:27:35;;;;;;;;;;;5.20;99.90;;;;;;6214541;23;19899;-77
2023/01/27 03:30:01;;;;;;;;;;;5.20;99.90;;;;;;6214602;23;20255;-77
2023/01/27 03:32:28;;;;;;;;;;;5.30;99.90;;;;;;6188065;23;19976;-77
2023/01/27 03:34:56;;;;;;;;;;;5.30;99.90;;;;;;6214851;23;20232;-77
2023/01/27 03:48:23;;;;;;;;;;;5.20;99.90;;;;;;6214103;23;19950;-77
2023/01/27 03:50:52;;;;;;;;;;;5.20;99.90;;;;;;6187419;23;19903;-77
2023/01/27 03:53:20;;;;;;;;;;;5.20;99.90;;;;;;6214329;23;19904;-77
2023/01/27 03:55:46;;;;;;;;;;;5.10;99.90;;;;;;6187950;23;19899;-77
2023/01/27 03:58:18;;;;;;;;;;;5.10;99.90;;;;;;6214059;23;20232;-77
2023/01/27 04:00:45;;;;;;;;;;;5.20;99.90;;;;;;6187576;23;19948;-77
2023/01/27 04:08:41;;;;;;;;;;;5.10;99.90;;;;;;6214165;23;20038;-77
2023/01/27 04:13:50;;;;;;;;;;;5.10;99.90;;;;;;6214228;23;19911;-77
2023/01/27 04:16:16;;;;;;;;;;;5.10;99.90;;;;;;6214147;23;19900;-74
2023/01/27 04:18:42;;;;;;;;;;;5.10;99.90;;;;;;6214319;23;19938;-74
2023/01/27 04:21:07;;;;;;;;;;;5.00;99.90;;;;;;6214442;23;19904;-74
2023/01/27 04:23:33;;;;;;;;;;;5.00;99.90;;;;;;6216220;23;20473;-74
2023/01/27 04:25:59;;;;;;;;;;;5.00;99.90;;;;;;6216144;23;19923;-74
2023/01/27 04:28:25;;;;;;;;;;;5.00;99.90;;;;;;6214697;23;19900;-74
2023/01/27 04:30:50;;;;;;;;;;;5.00;99.90;;;;;;6216220;23;19900;-74
2023/01/27 04:33:16;;;;;;;;;;;5.10;99.90;;;;;;6216219;23;19910;-75
2023/01/27 04:35:44;;;;;;;;;;;5.00;99.90;;;;;;6216167;23;19900;-74
2023/01/27 04:38:10;;;;;;;;;;;5.00;99.90;;;;;;6215857;23;19978;-74
2023/01/27 04:40:35;;;;;;;;;;;5.00;99.90;;;;;;6216245;23;19946;-74
2023/01/27 04:43:01;;;;;;;;;;;5.00;99.90;;;;;;6215791;23;19919;-74
2023/01/27 04:45:26;;;;;;;;;;;5.00;99.90;;;;;;6215953;23;19978;-74
2023/01/27 04:47:52;;;;;;;;;;;5.00;99.90;;;;;;6215872;23;19906;-74
2023/01/27 04:50:17;;;;;;;;;;;5.00;99.90;;;;;;6215846;23;19934;-74
2023/01/27 04:52:44;;;;;;;;;;;5.00;99.90;;;;;;6215974;23;20340;-74
2023/01/27 04:55:10;;;;;;;;;;;5.00;99.90;;;;;;6215812;23;19904;-74
2023/01/27 04:57:35;;;;;;;;;;;4.90;99.90;;;;;;6216116;23;20312;-74
2023/01/27 05:00:03;;;;;;;;;;;4.90;99.90;;;;;;6215804;23;19945;-74
2023/01/27 05:02:28;;;;;;;;;;;4.90;99.90;;;;;;6216028;23;19903;-75
2023/01/27 05:04:54;;;;;;;;;;;4.90;99.90;;;;;;6215939;23;19900;-74
2023/01/27 05:07:19;;;;;;;;;;;4.90;99.90;;;;;;6215563;23;19907;-75
2023/01/27 05:09:45;;;;;;;;;;;4.90;99.90;;;;;;6215567;23;20347;-75
2023/01/27 05:12:10;;;;;;;;;;;4.90;99.90;;;;;;6189008;23;20213;-75
2023/01/27 05:14:36;;;;;;;;;;;4.90;99.90;;;;;;6189142;23;19900;-75
2023/01/27 05:17:01;;;;;;;;;;;4.90;99.90;;;;;;6189101;23;19900;-77
2023/01/27 05:19:27;;;;;;;;;;;4.90;99.90;;;;;;6215579;23;19900;-77
2023/01/27 05:21:52;;;;;;;;;;;4.80;99.90;;;;;;6215574;23;19907;-77
2023/01/27 05:24:18;;;;;;;;;;;4.90;99.90;;;;;;6189060;23;20220;-77
2023/01/27 05:26:43;;;;;;;;;;;4.90;99.90;;;;;;6215804;23;19942;-77
2023/01/27 05:29:09;;;;;;;;;;;4.90;99.90;;;;;;6215599;23;19911;-77
2023/01/27 05:31:34;;;;;;;;;;;4.90;99.90;;;;;;6189110;23;19899;-77
2023/01/27 05:34:00;;;;;;;;;;;4.90;99.90;;;;;;6215698;23;19923;-77
2023/01/27 05:36:27;;;;;;;;;;;4.90;99.90;;;;;;6188871;23;19900;-77
2023/01/27 05:38:53;;;;;;;;;;;4.80;99.90;;;;;;6215402;23;20335;-77
2023/01/27 05:41:19;;;;;;;;;;;4.80;99.90;;;;;;6189084;23;20008;-74
2023/01/27 05:43:45;;;;;;;;;;;4.80;99.90;;;;;;6215782;23;19912;-74
2023/01/27 05:46:12;;;;;;;;;;;4.80;99.90;;;;;;6189268;23;19900;-74
2023/01/27 05:48:38;;;;;;;;;;;4.80;99.90;;;;;;6189016;23;19908;-74
2023/01/27 05:51:04;;;;;;;;;;;4.80;99.90;;;;;;6188869;23;19900;-77
2023/01/27 05:53:30;;;;;;;;;;;4.80;99.90;;;;;;6189055;23;20193;-77
2023/01/27 05:55:55;;;;;;;;;;;4.80;99.90;;;;;;6215792;23;19911;-77
2023/01/27 05:58:21;;;;;;;;;;;4.80;99.90;;;;;;6215581;23;20289;-77
2023/01/27 06:00:47;;;;;;;;;;;4.90;99.90;;;;;;6188942;23;19900;-77
2023/01/27 06:03:13;;;;;;;;;;;4.90;99.90;;;;;;6215673;23;19927;-77
2023/01/27 06:05:38;;;;;;;;;;;4.90;99.90;;;;;;6215572;23;19911;-77
2023/01/27 06:08:04;;;;;;;;;;;4.90;99.90;;;;;;6215244;23;19900;-77
2023/01/27 06:10:30;;;;;;;;;;;4.90;99.90;;;;;;6215476;23;19910;-77
2023/01/27 06:12:57;;;;;;;;;;;4.80;99.90;;;;;;6215363;23;19907;-77
2023/01/27 06:15:22;;;;;;;;;;;4.80;99.90;;;;;;6215601;23;20213;-77
2023/01/27 06:17:48;;;;;;;;;;;4.80;99.90;;;;;;6215070;23;19934;-77
2023/01/27 06:20:13;;;;;;;;;;;4.90;99.90;;;;;;6214946;23;19950;-77
2023/01/27 06:22:39;;;;;;;;;;;4.80;99.90;;;;;;6214902;23;20104;-77
2023/01/27 06:25:04;;;;;;;;;;;4.80;99.90;;;;;;6215307;23;20396;-77
2023/01/27 06:27:30;;;;;;;;;;;4.80;99.90;;;;;;6215033;23;19900;-74
2023/01/27 06:29:55;;;;;;;;;;;4.80;99.90;;;;;;6214946;23;19958;-74
2023/01/27 06:32:21;;;;;;;;;;;4.80;99.90;;;;;;6188491;23;20285;-74
2023/01/27 06:34:46;;;;;;;;;;;4.80;99.90;;;;;;6214220;23;19900;-75
2023/01/27 06:37:12;;;;;;;;;;;4.70;99.90;;;;;;6214274;23;19907;-75
2023/01/27 06:39:37;;;;;;;;;;;4.80;99.90;;;;;;6214295;23;19903;-74
2023/01/27 06:42:03;;;;;;;;;;;4.70;99.90;;;;;;6214732;23;19908;-75
2023/01/27 06:44:29;;;;;;;;;;;4.70;99.90;;;;;;6187310;23;19911;-74
2023/01/27 06:46:54;;;;;;;;;;;4.70;99.90;;;;;;6214964;23;19975;-74
2023/01/27 06:49:20;;;;;;;;;;;4.70;99.90;;;;;;6214887;23;20380;-74
2023/01/27 06:51:45;;;;;;;;;;;4.70;99.90;;;;;;6186178;23;19931;-74
2023/01/27 06:54:11;;;;;;;;;;;4.70;99.90;;;;;;6188371;23;19931;-74
2023/01/27 06:56:36;;;;;;;;;;;4.70;99.90;;;;;;6188252;23;19935;-74
2023/01/27 06:59:02;;;;;;;;;;;4.70;99.90;;;;;;6214846;23;19911;-74
2023/01/27 07:01:27;;;;;;;;;;;4.70;99.90;;;;;;6188440;23;19903;-74
2023/01/27 07:03:53;;;;;;;;;;;4.70;99.90;;;;;;6214793;23;19896;-74
2023/01/27 07:06:19;;;;;;;;;;;4.70;99.90;;;;;;6214731;23;19927;-75
2023/01/27 07:08:46;;;;;;;;;;;4.70;99.90;;;;;;6214667;23;19915;-74
2023/01/27 07:11:12;;;;;;;;;;;4.70;99.90;;;;;;6214741;23;19900;-74
2023/01/27 07:13:37;;;;;;;;;;;4.70;99.90;;;;;;6214865;23;20273;-74
2023/01/27 07:16:03;;;;;;;;;;;4.70;99.90;;;;;;6214515;23;19899;-74
2023/01/27 07:18:28;;;;;;;;;;;4.70;99.90;;;;;;6215986;23;19938;-74
2023/01/27 07:20:54;;;;;;;;;;;4.70;99.90;;;;;;6216145;23;19906;-74
2023/01/27 07:23:19;;;;;;;;;;;4.70;99.90;;;;;;6215736;23;19903;-77
2023/01/27 07:25:45;;;;;;;;;;;4.70;99.90;;;;;;6215711;23;20271;-77
2023/01/27 07:28:10;;;;;;;;;;;4.70;99.90;;;;;;6189120;23;19900;-77
2023/01/27 07:30:37;;;;;;;;;;;4.70;99.90;;;;;;6215600;23;20308;-77
2023/01/27 07:33:10;;;;;;;;;;;4.70;99.90;;;;;;6189535;23;20415;-77
2023/01/27 07:35:36;;;;;;;;;;;4.70;99.90;;;;;;6215968;23;19907;-77
2023/01/27 07:38:02;;;;;;;;;;;4.70;99.90;;;;;;6215754;23;19904;-77
2023/01/27 07:40:27;;;;;;;;;;;4.70;99.90;;;;;;6215760;23;19946;-77
2023/01/27 07:42:56;;;;;;;;;;;4.70;99.90;;;;;;6215789;23;19903;-77
2023/01/27 07:45:22;;;;;;;;;;;4.70;99.90;;;;;;6215654;23;19911;-76
2023/01/27 07:47:47;;;;;;;;;;;4.70;99.90;;;;;;6188021;23;19900;-76
2023/01/27 07:50:13;;;;;;;;;;;4.70;99.90;;;;;;6187766;23;19904;-77
2023/01/27 07:52:38;;;;;;;;;;;4.70;99.90;;;;;;6187790;23;19904;-77
2023/01/27 07:55:04;;;;;;;;;;;4.70;99.90;;;;;;6214715;23;19907;-77
2023/01/27 07:57:29;;;;;;;;;;;4.80;99.90;;;;;;6213930;23;19899;-77
2023/01/27 07:59:55;;;;;;;;;;;4.70;99.90;;;;;;6214430;23;19954;-77
2023/01/27 08:02:21;;;;;;;;;;;4.70;99.90;;;;;;6214810;23;19923;-77
2023/01/27 08:04:48;;;;;;;;;;;4.80;99.90;;;;;;6215912;23;19899;-77
2023/01/27 08:07:13;;;;;;;;;;;4.80;99.90;;;;;;6215564;23;19947;-77
2023/01/27 08:09:39;;;;;;;;;;;4.80;99.90;;;;;;6214847;23;20323;-77
2023/01/27 08:12:05;;;;;;;;;;;4.80;99.90;;;;;;6188594;23;19900;-77
2023/01/27 08:14:30;;;;;;;;;;;4.90;99.90;;;;;;6215622;23;19931;-77
2023/01/27 08:16:56;;;;;;;;;;;4.90;99.90;;;;;;6215382;23;19982;-77
2023/01/27 08:19:21;;;;;;;;;;;4.90;99.90;;;;;;6215457;23;20003;-77
2023/01/27 08:21:47;;;;;;;;;;;4.90;99.90;;;;;;6215906;23;19899;-77
2023/01/27 08:24:12;;;;;;;;;;;4.90;99.90;;;;;;6215777;23;20316;-77
2023/01/27 08:26:38;;;;;;;;;;;5.00;99.90;;;;;;6215699;23;20213;-77
2023/01/27 08:29:04;;;;;;;;;;;5.00;99.90;;;;;;6215254;23;19910;-77
2023/01/27 08:31:30;;;;;;;;;;;5.00;99.90;;;;;;6189023;23;20235;-77
2023/01/27 08:33:55;;;;;;;;;;;5.10;99.90;;;;;;6215277;23;19928;-77
2023/01/27 08:36:22;;;;;;;;;;;5.10;99.90;;;;;;6214309;23;19900;-74
2023/01/27 08:38:50;;;;;;;;;;;5.10;99.90;;;;;;6214061;23;20382;-76
2023/01/27 08:41:17;;;;;;;;;;;5.20;99.90;;;;;;6213968;23;19939;-76
2023/01/27 08:43:43;;;;;;;;;;;5.20;99.90;;;;;;6185925;23;19912;-76
2023/01/27 08:46:09;;;;;;;;;;;5.30;99.90;;;;;;6212306;23;20045;-76
2023/01/27 08:48:35;;;;;;;;;;;5.30;99.90;;;;;;6186238;23;19899;-76
2023/01/27 08:51:01;;;;;;;;;;;5.30;99.90;;;;;;6213080;23;20312;-76
2023/01/27 08:53:27;;;;;;;;;;;5.30;99.90;;;;;;6186370;23;19954;-76
2023/01/27 08:55:54;;;;;;;;;;;5.40;99.90;;;;;;6186367;23;19900;-76
2023/01/27 08:58:20;;;;;;;;;;;5.40;99.90;;;;;;6187152;23;20313;-77
2023/01/27 09:00:46;;;;;;;;;;;5.40;99.90;;;;;;6213828;23;19975;-76
2023/01/27 09:03:12;;;;;;;;;;;5.40;99.90;;;;;;6213700;23;19900;-76
2023/01/27 09:05:38;;;;;;;;;;;5.40;99.90;;;;;;6213972;23;19908;-76
2023/01/27 09:08:04;;;;;;;;;;;5.40;99.90;;;;;;6188062;23;20036;-76
2023/01/27 09:10:30;;;;;;;;;;;5.40;99.90;;;;;;6215783;23;19976;-76
2023/01/27 09:12:55;;;;;;;;;;;5.40;99.90;;;;;;6189088;23;19900;-76
2023/01/27 09:15:21;;;;;;;;;;;5.40;99.90;;;;;;6189223;23;19974;-76
2023/01/27 09:17:47;;;;;;;;;;;5.50;99.90;;;;;;6188895;23;19903;-76
2023/01/27 09:20:12;;;;;;;;;;;5.50;99.90;;;;;;6215591;23;19900;-76
2023/01/27 09:22:39;;;;;;;;;;;5.50;99.90;;;;;;6215636;23;20276;-77
2023/01/27 09:25:05;;;;;;;;;;;5.50;99.90;;;;;;6189022;23;19907;-76
2023/01/27 09:27:31;;;;;;;;;;;5.40;99.90;;;;;;6215655;23;19911;-76
2023/01/27 09:29:56;;;;;;;;;;;5.40;99.90;;;;;;6215355;23;20408;-77
2023/01/27 09:32:22;;;;;;;;;;;5.50;99.90;;;;;;6215784;23;19900;-76
2023/01/27 09:34:47;;;;;;;;;;;5.50;99.90;;;;;;6215618;23;20340;-76
2023/01/27 09:37:13;;;;;;;;;;;5.50;99.90;;;;;;6215527;23;19962;-76
2023/01/27 09:39:45;;;;;;;;;;;5.60;99.90;;;;;;6215462;23;20316;-76
2023/01/27 09:42:13;;;;;;;;;;;5.60;99.90;;;;;;6215664;23;20400;-76
2023/01/27 09:44:45;;;;;;;;;;;5.70;99.90;;;;;;6215093;23;20354;-76
2023/01/27 09:47:13;;;;;;;;;;;5.70;99.90;;;;;;6188879;23;20305;-76
2023/01/27 09:49:53;;;;;;;;;;;5.70;99.90;;;;;;6215403;23;19904;-76
2023/01/27 09:52:33;;;;;;;;;;;5.70;99.90;;;;;;6215281;23;19900;-76
2023/01/27 09:54:58;;;;;;;;;;;5.70;99.90;;;;;;6215216;23;19904;-76
2023/01/27 09:57:43;;;;;;;;;;;5.70;99.90;;;;;;6188683;23;20363;-76
2023/01/27 10:00:14;;;;;;;;;;;5.70;99.90;;;;;;6188732;23;19983;-76
2023/01/27 10:02:58;;;;;;;;;;;5.70;99.90;;;;;;6215431;23;19915;-76
2023/01/27 10:05:31;;;;;;;;;;;5.70;99.90;;;;;;6188458;23;19899;-76
2023/01/27 10:07:56;;;;;;;;;;;5.80;99.90;;;;;;6215144;23;19900;-76
2023/01/27 10:10:37;;;;;;;;;;;5.80;99.90;;;;;;6215312;23;19911;-76
2023/01/27 10:13:10;;;;;;;;;;;5.90;99.90;;;;;;6215164;23;19910;-76
2023/01/27 10:15:42;;;;;;;;;;;5.90;99.90;;;;;;6215261;23;19907;-76
2023/01/27 10:18:08;;;;;;;;;;;6.00;99.90;;;;;;6214887;23;20343;-76
2023/01/27 10:20:54;;;;;;;;;;;6.00;99.90;;;;;;6214995;23;19979;-76
2023/01/27 10:23:19;;;;;;;;;;;6.10;99.90;;;;;;6188335;23;19904;-76
2023/01/27 10:25:51;;;;;;;;;;;6.10;99.90;;;;;;6215002;23;19949;-76
2023/01/27 10:28:21;;;;;;;;;;;6.00;99.90;;;;;;6214832;23;20290;-76
2023/01/27 10:30:49;;;;;;;;;;;6.00;99.90;;;;;;6214906;23;20352;-76
2023/01/27 10:33:18;;;;;;;;;;;5.90;99.90;;;;;;6215261;23;19900;-76
2023/01/27 10:35:52;;;;;;;;;;;5.90;99.90;;;;;;6215071;23;19907;-76
2023/01/27 10:38:20;;;;;;;;;;;6.00;99.90;;;;;;6187862;23;19907;-76
2023/01/27 10:41:15;;;;;;;;;;;6.00;99.90;;;;;;6214939;23;19900;-76
2023/01/27 10:43:41;;;;;;;;;;;6.10;99.90;;;;;;6156311;23;19912;-76
2023/01/27 10:46:06;;;;;;;;;;;6.10;99.90;;;;;;6215092;23;19907;-76
2023/01/27 10:48:39;;;;;;;;;;;6.10;99.90;;;;;;6214553;23;19922;-76
2023/01/27 10:51:10;;;;;;;;;;;6.10;99.90;;;;;;6214791;23;19900;-76
2023/01/27 10:53:36;;;;;;;;;;;6.10;99.90;;;;;;6214675;23;19904;-76
2023/01/27 10:56:12;;;;;;;;;;;6.10;99.90;;;;;;6188332;23;19924;-76
2023/01/27 10:58:46;;;;;;;;;;;6.20;99.90;;;;;;6214712;23;19906;-76
2023/01/27 11:01:13;;;;;;;;;;;6.20;99.90;;;;;;6188070;23;19974;-76
2023/01/27 11:03:40;;;;;;;;;;;6.20;99.90;;;;;;6187948;23;20235;-76
2023/01/27 11:06:08;;;;;;;;;;;6.30;99.90;;;;;;6214684;23;19900;-76
2023/01/27 11:08:35;;;;;;;;;;;6.20;99.90;;;;;;6214517;23;20308;-76
2023/01/27 11:13:46;;;;;;;;;;;6.20;99.90;;;;;;6214791;23;19907;-76
2023/01/27 11:16:14;;;;;;;;;;;6.20;99.90;;;;;;6214524;23;19900;-76
2023/01/27 11:18:40;;;;;;;;;;;6.20;99.90;;;;;;6214649;23;19978;-76
2023/01/27 11:21:09;;;;;;;;;;;6.30;99.90;;;;;;6214868;23;19900;-76
2023/01/27 11:23:44;;;;;;;;;;;6.30;99.90;;;;;;6214328;23;19900;-76
2023/01/27 11:26:31;;;;;;;;;;;6.30;99.90;;;;;;6214579;23;19907;-76
2023/01/27 11:29:09;;;;;;;;;;;6.30;99.90;;;;;;6187634;23;19954;-76
2023/01/27 11:31:38;;;;;;;;;;;6.30;99.90;;;;;;6214452;23;19900;-76
2023/01/27 11:34:12;;;;;;;;;;;6.30;99.90;;;;;;6214582;23;20332;-76
2023/01/27 11:36:38;;;;;;;;;;;6.30;99.90;;;;;;6187884;23;19896;-76
2023/01/27 11:39:05;;;;;;;;;;;6.40;99.90;;;;;;6187555;23;19899;-76
2023/01/27 11:41:31;;;;;;;;;;;6.40;99.90;;;;;;6214623;23;19899;-76
2023/01/27 11:44:05;;;;;;;;;;;6.40;99.90;;;;;;6214437;23;19991;-76
2023/01/27 11:46:31;;;;;;;;;;;6.40;99.90;;;;;;6214416;23;19915;-76
2023/01/27 11:48:57;;;;;;;;;;;6.40;99.90;;;;;;6187845;23;19977;-76
2023/01/27 11:51:24;;;;;;;;;;;6.50;99.90;;;;;;6187607;23;20332;-76
2023/01/27 11:54:10;;;;;;;;;;;6.60;99.90;;;;;;6214279;23;19945;-76
2023/01/27 11:56:36;;;;;;;;;;;6.50;99.90;;;;;;6188202;23;19922;-76
2023/01/27 11:59:07;;;;;;;;;;;6.50;99.90;;;;;;6214272;23;20316;-76
2023/01/27 12:01:37;;;;;;;;;;;6.50;99.90;;;;;;6214223;23;20072;-76
2023/01/27 12:04:11;;;;;;;;;;;6.50;99.90;;;;;;6214388;23;19935;-76
2023/01/27 12:06:43;;;;;;;;;;;6.50;99.90;;;;;;6214055;23;19899;-76
2023/01/27 12:09:27;;;;;;;;;;;6.50;99.90;;;;;;6214045;23;19943;-76
2023/01/27 12:12:07;;;;;;;;;;;6.50;99.90;;;;;;6214171;23;19900;-76
2023/01/27 12:14:33;;;;;;;;;;;6.40;99.90;;;;;;6214211;23;19938;-76
2023/01/27 12:17:00;;;;;;;;;;;6.50;99.90;;;;;;6187492;23;20040;-76
2023/01/27 12:19:31;;;;;;;;;;;6.50;99.90;;;;;;6214322;23;19934;-76
2023/01/27 12:21:58;;;;;;;;;;;6.40;99.90;;;;;;6214153;23;19906;-76
2023/01/27 12:24:31;;;;;;;;;;;6.40;99.90;;;;;;6214118;23;19900;-76
2023/01/27 12:26:57;;;;;;;;;;;6.30;99.90;;;;;;6214059;23;20023;-76
2023/01/27 12:29:38;;;;;;;;;;;6.30;99.90;;;;;;6213998;23;20411;-76
2023/01/27 12:32:12;;;;;;;;;;;6.30;99.90;;;;;;6214199;23;19955;-76
2023/01/27 12:34:38;;;;;;;;;;;6.40;99.90;;;;;;6214194;23;19993;-76
2023/01/27 12:37:05;;;;;;;;;;;6.40;99.90;;;;;;6213775;23;19900;-76
2023/01/27 12:39:31;;;;;;;;;;;6.40;99.90;;;;;;6214096;23;19907;-76
2023/01/27 12:41:56;;;;;;;;;;;6.40;99.90;;;;;;6187578;23;20136;-76
2023/01/27 12:44:22;;;;;;;;;;;6.50;99.90;;;;;;6216043;23;20352;-76
2023/01/27 12:46:56;;;;;;;;;;;6.50;99.90;;;;;;6189580;23;20321;-76
2023/01/27 12:49:24;;;;;;;;;;;6.50;99.90;;;;;;6215938;23;19910;-76
2023/01/27 12:51:50;;;;;;;;;;;6.60;99.90;;;;;;6216002;23;19900;-76
2023/01/27 12:54:20;;;;;;;;;;;6.60;99.90;;;;;;6215962;23;19953;-76
2023/01/27 12:56:46;;;;;;;;;;;6.70;99.90;;;;;;6216072;23;19907;-76
2023/01/27 12:59:13;;;;;;;;;;;6.80;99.90;;;;;;6189251;23;19899;-76
2023/01/27 13:01:40;;;;;;;;;;;6.80;99.90;;;;;;6216003;23;20316;-76
2023/01/27 13:04:20;;;;;;;;;;;6.80;99.90;;;;;;6189213;23;19904;-76
2023/01/27 13:06:50;;;;;;;;;;;6.90;99.90;;;;;;6215569;23;19899;-76
2023/01/27 13:09:28;;;;;;;;;;;6.80;99.90;;;;;;6188897;23;19991;-76
2023/01/27 13:11:54;;;;;;;;;;;6.80;99.90;;;;;;6216018;23;20333;-76
2023/01/27 13:14:20;;;;;;;;;;;6.70;99.90;;;;;;6215823;23;19977;-76
2023/01/27 13:16:49;;;;;;;;;;;6.70;99.90;;;;;;6215734;23;19946;-76
2023/01/27 13:19:16;;;;;;;;;;;6.70;99.90;;;;;;6189192;23;20217;-76
2023/01/27 13:21:41;;;;;;;;;;;6.60;99.90;;;;;;6215583;23;19900;-76
2023/01/27 13:24:13;;;;;;;;;;;6.60;99.90;;;;;;6215855;23;19982;-76
2023/01/27 13:26:39;;;;;;;;;;;6.60;99.90;;;;;;6189126;23;20380;-76
2023/01/27 13:29:04;;;;;;;;;;;6.50;99.90;;;;;;6215398;23;19954;-76
2023/01/27 13:31:41;;;;;;;;;;;6.60;99.90;;;;;;6188923;23;19899;-76
2023/01/27 13:34:28;;;;;;;;;;;6.60;99.90;;;;;;6215681;23;19907;-76
2023/01/27 13:37:01;;;;;;;;;;;6.60;99.90;;;;;;6140367;23;19900;-76
2023/01/27 13:39:34;;;;;;;;;;;6.60;99.90;;;;;;6188973;23;19919;-75
2023/01/27 13:41:59;;;;;;;;;;;6.60;99.90;;;;;;6215485;23;20305;-76
2023/01/27 13:44:28;;;;;;;;;;;6.70;99.90;;;;;;6215410;23;19911;-76
2023/01/27 13:46:56;;;;;;;;;;;6.70;99.90;;;;;;6215372;23;19900;-76
2023/01/27 13:49:25;;;;;;;;;;;6.80;99.90;;;;;;6215562;23;19911;-76
2023/01/27 13:51:50;;;;;;;;;;;6.80;99.90;;;;;;6215268;23;20193;-76
2023/01/27 13:54:16;;;;;;;;;;;6.80;99.90;;;;;;6215493;23;19987;-76
2023/01/27 13:56:45;;;;;;;;;;;6.80;99.90;;;;;;6188566;23;19907;-75
2023/01/27 13:59:13;;;;;;;;;;;6.80;99.90;;;;;;6215181;23;19900;-76
2023/01/27 14:01:53;;;;;;;;;;;6.80;99.90;;;;;;6189683;23;19899;-76
2023/01/27 14:04:25;;;;;;;;;;;6.80;99.90;;;;;;6216946;23;19934;-76
2023/01/27 14:06:51;;;;;;;;;;;6.90;99.90;;;;;;6216488;23;19978;-76
2023/01/27 14:09:22;;;;;;;;;;;7.00;99.90;;;;;;6216354;23;19940;-76
2023/01/27 14:12:00;;;;;;;;;;;7.00;99.90;;;;;;6216603;23;19946;-76
2023/01/27 14:14:44;;;;;;;;;;;7.00;99.90;;;;;;6216691;23;19906;-76
2023/01/27 14:17:25;;;;;;;;;;;7.00;99.90;;;;;;6216686;23;19943;-76
2023/01/27 14:20:00;;;;;;;;;;;7.00;99.90;;;;;;6190051;23;20048;-76
2023/01/27 14:22:25;;;;;;;;;;;7.00;99.90;;;;;;6188333;23;19907;-76
2023/01/27 14:24:53;;;;;;;;;;;6.90;99.90;;;;;;6213170;23;19899;-76
2023/01/27 14:27:28;;;;;;;;;;;7.00;99.90;;;;;;6211918;23;19907;-75
2023/01/27 14:30:14;;;;;;;;;;;6.90;99.90;;;;;;6212824;23;20293;-75
2023/01/27 14:32:53;;;;;;;;;;;6.90;99.90;;;;;;6212405;23;19907;-76
2023/01/27 14:35:28;;;;;;;;;;;7.00;99.90;;;;;;6212546;23;19912;-76
2023/01/27 14:37:59;;;;;;;;;;;7.00;99.90;;;;;;6185358;23;19900;-76
2023/01/27 14:40:37;;;;;;;;;;;7.00;99.90;;;;;;6212791;23;19900;-76
2023/01/27 14:43:08;;;;;;;;;;;6.90;99.90;;;;;;6212498;23;20202;-76
2023/01/27 14:45:39;;;;;;;;;;;7.00;99.90;;;;;;6186428;23;19942;-76
2023/01/27 14:48:10;;;;;;;;;;;7.00;99.90;;;;;;6185057;23;19907;-75
2023/01/27 14:50:38;;;;;;;;;;;7.00;99.90;;;;;;6215637;23;20317;-75
2023/01/27 14:53:04;;;;;;;;;;;7.10;99.90;;;;;;6215843;23;19900;-75
2023/01/27 14:55:34;;;;;;;;;;;7.00;99.90;;;;;;6188793;23;19962;-75
2023/01/27 14:58:09;;;;;;;;;;;7.10;99.90;;;;;;6214665;23;19904;-75
2023/01/27 15:00:51;;;;;;;;;;;7.10;99.90;;;;;;6215763;23;20289;-75
2023/01/27 15:03:23;;;;;;;;;;;7.10;99.90;;;;;;6215689;23;19904;-76
2023/01/27 15:05:56;;;;;;;;;;;7.10;99.90;;;;;;6215112;23;19904;-76
2023/01/27 15:08:48;;;;;;;;;;;7.00;99.90;;;;;;6215640;23;19904;-76
2023/01/27 15:11:52;;;;;;;;;;;7.00;99.90;;;;;;6208434;23;20313;-77
2023/01/27 15:14:36;;;;;;;;;;;6.90;99.90;;;;;;6065860;23;19901;-75